createdAt,value
2023-01-07T00:05:12.614Z,79.18
2023-01-07T00:11:35.605Z,79.37
2023-01-07T00:17:55.605Z,79.51
2023-01-07T00:24:18.838Z,79.85
2023-01-07T00:30:38.615Z,80.2
2023-01-07T00:37:01.687Z,80.54
2023-01-07T00:43:21.641Z,81.04
2023-01-07T00:49:44.571Z,81.33
2023-01-07T00:56:04.716Z,81.81
2023-01-07T01:02:27.659Z,82.39
2023-01-07T01:08:47.615Z,82.9
2023-01-07T01:15:10.719Z,82.94
2023-01-07T01:21:30.599Z,83.05
2023-01-07T01:27:53.590Z,83
2023-01-07T01:34:13.706Z,82.93
2023-01-07T01:40:36.663Z,82.89
2023-01-07T01:46:56.677Z,83.15
2023-01-07T01:53:19.624Z,83.18
2023-01-07T01:59:39.666Z,83.32
2023-01-07T02:06:02.588Z,83.1
2023-01-07T02:12:22.732Z,83.04
2023-01-07T02:18:45.611Z,83.22
2023-01-07T02:25:05.585Z,83.03
2023-01-07T02:31:28.726Z,83.05
2023-01-07T02:37:48.629Z,83.23
2023-01-07T02:44:11.657Z,83.33
2023-01-07T02:50:31.636Z,83.33
2023-01-07T02:56:54.598Z,83.42
2023-01-07T03:03:14.597Z,83.78
2023-01-07T03:09:37.760Z,83.93
2023-01-07T03:15:57.616Z,84.46
2023-01-07T03:22:20.590Z,84.94
2023-01-07T03:28:40.743Z,84.81
2023-01-07T03:35:03.608Z,85.16
2023-01-07T03:41:23.591Z,85.11
2023-01-07T03:47:46.740Z,85.43
2023-01-07T03:54:06.585Z,85.47
2023-01-07T04:00:29.580Z,85.5
2023-01-07T04:06:49.745Z,85.15
2023-01-07T04:13:12.607Z,84.66
2023-01-07T04:19:32.622Z,85.09
2023-01-07T04:35:43.601Z,85.67
2023-01-07T04:42:03.571Z,86.17
2023-01-07T04:48:26.622Z,85.96
2023-01-07T04:54:46.686Z,85.48
2023-01-07T05:01:09.752Z,85.05
2023-01-07T05:07:29.566Z,85.01
2023-01-07T05:13:52.689Z,85.1
2023-01-07T05:20:12.630Z,85.05
2023-01-07T05:26:35.566Z,84.64
2023-01-07T05:32:55.699Z,83.77
2023-01-07T05:39:18.568Z,83.25
2023-01-07T05:45:38.594Z,82.64
2023-01-07T05:52:01.726Z,82.25
2023-01-07T05:58:21.585Z,81.96
2023-01-07T06:04:44.656Z,81.78
2023-01-07T06:11:04.760Z,81.75
2023-01-07T06:17:27.606Z,81.64
2023-01-07T06:23:47.580Z,81.46
2023-01-07T06:30:10.745Z,81.35
2023-01-07T06:36:30.590Z,81.74
2023-01-07T06:42:53.640Z,81.81
2023-01-07T06:49:13.710Z,81.74
2023-01-07T06:55:36.606Z,81.87
2023-01-07T07:01:56.821Z,82.01
2023-01-07T07:08:19.695Z,82.27
2023-01-07T07:14:39.590Z,82.42
2023-01-07T07:21:02.595Z,82.63
2023-01-07T07:27:22.796Z,82.72
2023-01-07T07:33:45.573Z,82.86
2023-01-07T07:40:05.661Z,82.78
2023-01-07T07:46:28.754Z,82.83
2023-01-07T07:52:48.636Z,82.26
2023-01-07T07:59:12.586Z,82.17
2023-01-07T08:05:32.695Z,82.31
2023-01-07T08:11:55.598Z,82.29
2023-01-07T08:18:15.600Z,82.05
2023-01-07T08:24:39.375Z,81.61
2023-01-07T08:30:59.591Z,81.97
2023-01-07T08:37:22.612Z,81.31
2023-01-07T08:43:42.701Z,81.15
2023-01-07T08:50:06.634Z,80.96
2023-01-07T08:56:26.587Z,80.55
2023-01-07T09:02:49.773Z,80.45
2023-01-07T09:09:09.650Z,80.03
2023-01-07T09:15:32.618Z,79.59
2023-01-07T09:21:52.772Z,79.44
2023-01-07T09:28:15.612Z,79.02
2023-01-07T09:44:40.647Z,77.27
2023-01-07T09:51:00.593Z,76.74
2023-01-07T09:57:23.704Z,76.45
2023-01-07T10:03:43.795Z,75.37
2023-01-07T10:10:06.613Z,75.35
2023-01-07T10:16:26.686Z,73.95
2023-01-07T10:22:49.730Z,70.85
2023-01-07T10:29:09.579Z,71.47
2023-01-07T10:35:32.623Z,70.3
2023-01-07T10:41:52.691Z,70.54
2023-01-07T10:48:15.634Z,70.32
2023-01-07T10:54:35.593Z,69.25
2023-01-07T11:00:58.853Z,69.31
2023-01-07T11:07:18.604Z,69.49
2023-01-07T11:13:41.623Z,69.25
2023-01-07T11:20:01.747Z,70.03
2023-01-07T11:26:24.577Z,70.55
2023-01-07T11:32:44.599Z,70.66
2023-01-07T11:39:07.710Z,70.53
2023-01-07T11:45:27.673Z,69.9
2023-01-07T11:51:50.625Z,69.82
2023-01-07T11:58:29.175Z,69.52
2023-01-07T12:04:33.560Z,69.01
2023-01-07T12:10:53.616Z,68.89
2023-01-07T12:17:16.690Z,68.87
2023-01-07T12:23:36.598Z,69.1
2023-01-07T12:29:59.583Z,69.13
2023-01-07T12:36:19.702Z,67.92
2023-01-07T12:42:42.605Z,68.36
2023-01-07T12:49:02.622Z,68.36
2023-01-07T12:55:25.708Z,68.59
2023-01-07T13:01:45.699Z,68.29
2023-01-07T13:08:08.610Z,68.51
2023-01-07T13:14:28.732Z,68.17
2023-01-07T13:20:51.575Z,68.59
2023-01-07T13:27:11.646Z,68.44
2023-01-07T13:33:34.702Z,68.35
2023-01-07T13:39:54.644Z,68.61
2023-01-07T13:46:17.848Z,68.68
2023-01-07T13:52:37.643Z,68.71
2023-01-07T13:59:00.583Z,68.73
2023-01-07T14:05:20.597Z,68.8
2023-01-07T14:11:43.748Z,68.47
2023-01-07T14:18:03.601Z,67.81
2023-01-07T14:24:26.570Z,67.16
2023-01-07T14:30:46.832Z,66.79
2023-01-07T14:37:09.603Z,66.64
2023-01-07T14:43:29.590Z,66.18
2023-01-07T15:07:31.201Z,66.39
2023-01-07T15:13:50.606Z,66.45
2023-01-07T15:20:13.592Z,66.91
2023-01-07T15:26:33.760Z,67.35
2023-01-07T15:32:56.596Z,68.24
2023-01-07T15:39:16.619Z,68.31
2023-01-07T15:45:39.604Z,68.9
2023-01-07T15:51:59.600Z,69.51
2023-01-07T15:58:22.585Z,69.96
2023-01-07T16:04:42.730Z,70.08
2023-01-07T16:11:05.585Z,70.67
2023-01-07T16:17:25.635Z,71.19
2023-01-07T16:23:48.650Z,71.77
2023-01-07T16:30:08.598Z,72.48
2023-01-07T16:36:31.610Z,73.02
2023-01-07T16:42:51.809Z,72.81
2023-01-07T16:49:14.590Z,73.16
2023-01-07T16:55:34.587Z,73.35
2023-01-07T17:01:57.822Z,73.7
2023-01-07T17:08:17.984Z,74.16
2023-01-07T17:14:40.641Z,74.54
2023-01-07T17:21:00.743Z,74.71
2023-01-07T17:27:23.627Z,74.89
2023-01-07T17:33:43.604Z,74.88
2023-01-07T17:40:06.695Z,75.01
2023-01-07T17:46:27.692Z,75.48
2023-01-07T17:52:49.610Z,75.43
2023-01-07T17:59:09.726Z,75.55
2023-01-07T18:05:32.582Z,75.6
2023-01-07T18:11:52.608Z,75.76
2023-01-07T18:18:15.793Z,75.67
2023-01-07T18:24:35.602Z,75.68
2023-01-07T18:30:58.611Z,75.72
2023-01-07T18:37:18.690Z,75.11
2023-01-07T18:43:41.598Z,74.35
2023-01-07T18:50:01.595Z,74.01
2023-01-07T18:56:24.868Z,73.64
2023-01-07T19:02:44.588Z,73.75
2023-01-07T19:09:07.604Z,73.75
2023-01-07T19:15:27.706Z,73.78
2023-01-07T19:21:50.562Z,73.68
2023-01-07T19:28:10.628Z,73.75
2023-01-07T19:34:33.685Z,73.98
2023-01-07T19:40:53.601Z,73.56
2023-01-07T19:47:16.623Z,73.86
2023-01-07T19:53:36.746Z,74.02
2023-01-07T19:59:59.598Z,74.36
2023-01-07T20:06:19.584Z,74.41
2023-01-07T20:22:48.594Z,69.98
2023-01-07T20:29:08.561Z,68.36
2023-01-07T20:35:31.576Z,68.89
2023-01-07T20:41:51.689Z,68.92
2023-01-07T20:48:14.588Z,68.72
2023-01-07T20:54:34.570Z,67.72
2023-01-07T21:00:57.847Z,67.6
2023-01-07T21:07:17.589Z,67.75
2023-01-07T21:13:40.835Z,67.85
2023-01-07T21:20:00.712Z,67.7
2023-01-07T21:26:23.600Z,67.73
2023-01-07T21:32:43.638Z,68.27
2023-01-07T21:39:06.715Z,68.29
2023-01-07T21:45:26.579Z,68.54
2023-01-07T21:51:49.618Z,68.79
2023-01-07T21:58:09.718Z,68.52
2023-01-07T22:04:32.599Z,68.63
2023-01-07T22:10:52.616Z,69.03
2023-01-07T22:17:15.688Z,69.44
2023-01-07T22:23:37.266Z,69.6
2023-01-07T22:29:58.572Z,69.96
2023-01-07T22:36:18.741Z,70.18
2023-01-07T22:42:41.583Z,70.09
2023-01-07T22:49:01.581Z,70.13
2023-01-07T22:55:24.713Z,70.05
2023-01-07T23:19:38.721Z,71.42
2023-01-07T23:25:58.567Z,71.81
2023-01-07T23:32:21.647Z,71.96
2023-01-07T23:38:41.715Z,72.28
2023-01-07T23:45:04.638Z,72.74
2023-01-07T23:51:24.616Z,72.91
2023-01-07T23:57:47.734Z,73.37
